sensor_id;sensor_type;location;lat;lon;timestamp;temperature;humidity
24158;DHT22;12316;50.904;4.200;2022-07-23T00:01:28;17.90;99.90
24158;DHT22;12316;50.904;4.200;2022-07-23T00:03:55;17.90;99.90
24158;DHT22;12316;50.904;4.200;2022-07-23T00:06:22;17.80;99.90
24158;DHT22;12316;50.904;4.200;2022-07-23T00:08:48;17.90;99.90
24158;DHT22;12316;50.904;4.200;2022-07-23T00:11:13;17.90;99.90
24158;DHT22;12316;50.904;4.200;2022-07-23T00:13:39;17.90;99.90
24158;DHT22;12316;50.904;4.200;2022-07-23T00:16:05;17.90;99.90
24158;DHT22;12316;50.904;4.200;2022-07-23T00:18:31;17.80;99.90
24158;DHT22;12316;50.904;4.200;2022-07-23T00:20:56;17.80;99.90
24158;DHT22;12316;50.904;4.200;2022-07-23T00:23:22;17.70;99.90
24158;DHT22;12316;50.904;4.200;2022-07-23T00:25:47;17.80;99.90
24158;DHT22;12316;50.904;4.200;2022-07-23T00:28:13;17.80;99.90
24158;DHT22;12316;50.904;4.200;2022-07-23T00:30:39;17.70;99.90
24158;DHT22;12316;50.904;4.200;2022-07-23T00:33:07;17.70;99.90
24158;DHT22;12316;50.904;4.200;2022-07-23T00:35:35;17.60;99.90
24158;DHT22;12316;50.904;4.200;2022-07-23T00:38:02;17.60;99.90
24158;DHT22;12316;50.904;4.200;2022-07-23T00:40:29;17.60;99.90
24158;DHT22;12316;50.904;4.200;2022-07-23T00:42:56;17.50;99.90
24158;DHT22;12316;50.904;4.200;2022-07-23T00:45:22;17.50;99.90
24158;DHT22;12316;50.904;4.200;2022-07-23T00:47:48;17.40;99.90
24158;DHT22;12316;50.904;4.200;2022-07-23T00:50:15;17.40;99.90
24158;DHT22;12316;50.904;4.200;2022-07-23T00:52:41;17.40;99.90
24158;DHT22;12316;50.904;4.200;2022-07-23T00:55:09;17.40;99.90
24158;DHT22;12316;50.904;4.200;2022-07-23T00:57:35;17.30;99.90
24158;DHT22;12316;50.904;4.200;2022-07-23T01:00:02;17.30;99.90
24158;DHT22;12316;50.904;4.200;2022-07-23T01:02:28;17.30;99.90
24158;DHT22;12316;50.904;4.200;2022-07-23T01:04:54;17.30;99.90
24158;DHT22;12316;50.904;4.200;2022-07-23T01:07:20;17.30;99.90
24158;DHT22;12316;50.904;4.200;2022-07-23T01:09:46;17.30;99.90
24158;DHT22;12316;50.904;4.200;2022-07-23T01:12:13;17.30;99.90
24158;DHT22;12316;50.904;4.200;2022-07-23T01:14:38;17.30;99.90
24158;DHT22;12316;50.904;4.200;2022-07-23T01:17:04;17.30;99.90
24158;DHT22;12316;50.904;4.200;2022-07-23T01:19:30;17.30;99.90
24158;DHT22;12316;50.904;4.200;2022-07-23T01:22:01;17.30;99.90
24158;DHT22;12316;50.904;4.200;2022-07-23T01:24:27;17.20;99.90
24158;DHT22;12316;50.904;4.200;2022-07-23T01:26:53;17.20;99.90
24158;DHT22;12316;50.904;4.200;2022-07-23T01:29:19;17.20;99.90
24158;DHT22;12316;50.904;4.200;2022-07-23T01:31:47;17.20;99.90
24158;DHT22;12316;50.904;4.200;2022-07-23T01:34:13;17.10;99.90
24158;DHT22;12316;50.904;4.200;2022-07-23T01:36:39;17.20;99.90
24158;DHT22;12316;50.904;4.200;2022-07-23T01:39:06;17.10;99.90
24158;DHT22;12316;50.904;4.200;2022-07-23T01:41:32;17.10;99.90
24158;DHT22;12316;50.904;4.200;2022-07-23T01:43:58;17.10;99.90
24158;DHT22;12316;50.904;4.200;2022-07-23T01:46:24;17.10;99.90
24158;DHT22;12316;50.904;4.200;2022-07-23T01:48:50;17.10;99.90
24158;DHT22;12316;50.904;4.200;2022-07-23T01:51:16;17.10;99.90
24158;DHT22;12316;50.904;4.200;2022-07-23T01:53:41;17.10;99.90
24158;DHT22;12316;50.904;4.200;2022-07-23T01:56:07;17.10;99.90
24158;DHT22;12316;50.904;4.200;2022-07-23T01:58:33;17.20;99.90
24158;DHT22;12316;50.904;4.200;2022-07-23T02:00:59;17.20;99.90
24158;DHT22;12316;50.904;4.200;2022-07-23T02:03:25;17.10;99.90
24158;DHT22;12316;50.904;4.200;2022-07-23T02:05:51;17.10;99.90
24158;DHT22;12316;50.904;4.200;2022-07-23T02:08:17;17.10;99.90
24158;DHT22;12316;50.904;4.200;2022-07-23T02:10:43;17.10;99.90
24158;DHT22;12316;50.904;4.200;2022-07-23T02:13:09;17.10;99.90
24158;DHT22;12316;50.904;4.200;2022-07-23T02:15:35;17.00;99.90
24158;DHT22;12316;50.904;4.200;2022-07-23T02:18:01;17.00;99.90
24158;DHT22;12316;50.904;4.200;2022-07-23T02:20:26;17.00;99.90
24158;DHT22;12316;50.904;4.200;2022-07-23T02:22:52;16.90;99.90
24158;DHT22;12316;50.904;4.200;2022-07-23T02:25:18;16.90;99.90
24158;DHT22;12316;50.904;4.200;2022-07-23T02:27:44;16.90;99.90
24158;DHT22;12316;50.904;4.200;2022-07-23T02:30:10;16.80;99.90
24158;DHT22;12316;50.904;4.200;2022-07-23T02:32:36;16.90;99.90
24158;DHT22;12316;50.904;4.200;2022-07-23T02:35:03;16.80;99.90
24158;DHT22;12316;50.904;4.200;2022-07-23T02:37:29;16.90;99.90
24158;DHT22;12316;50.904;4.200;2022-07-23T02:39:54;16.80;99.90
24158;DHT22;12316;50.904;4.200;2022-07-23T02:42:20;16.80;99.90
24158;DHT22;12316;50.904;4.200;2022-07-23T02:44:46;16.80;99.90
24158;DHT22;12316;50.904;4.200;2022-07-23T02:47:12;16.80;99.90
24158;DHT22;12316;50.904;4.200;2022-07-23T02:49:37;16.80;99.90
24158;DHT22;12316;50.904;4.200;2022-07-23T02:52:04;16.80;99.90
24158;DHT22;12316;50.904;4.200;2022-07-23T02:54:29;16.80;99.90
24158;DHT22;12316;50.904;4.200;2022-07-23T02:56:55;16.80;99.90
24158;DHT22;12316;50.904;4.200;2022-07-23T02:59:21;16.80;99.90
24158;DHT22;12316;50.904;4.200;2022-07-23T03:01:46;16.70;99.90
24158;DHT22;12316;50.904;4.200;2022-07-23T03:04:12;16.70;99.90
24158;DHT22;12316;50.904;4.200;2022-07-23T03:06:38;16.60;99.90
24158;DHT22;12316;50.904;4.200;2022-07-23T03:09:05;16.60;99.90
24158;DHT22;12316;50.904;4.200;2022-07-23T03:11:31;16.50;99.90
24158;DHT22;12316;50.904;4.200;2022-07-23T03:13:57;16.50;99.90
24158;DHT22;12316;50.904;4.200;2022-07-23T03:16:23;16.50;99.90
24158;DHT22;12316;50.904;4.200;2022-07-23T03:18:48;16.50;99.90
24158;DHT22;12316;50.904;4.200;2022-07-23T03:21:14;16.50;99.90
24158;DHT22;12316;50.904;4.200;2022-07-23T03:23:39;16.40;99.90
24158;DHT22;12316;50.904;4.200;2022-07-23T03:26:05;16.40;99.90
24158;DHT22;12316;50.904;4.200;2022-07-23T03:28:31;16.40;99.90
24158;DHT22;12316;50.904;4.200;2022-07-23T03:30:57;16.50;99.90
24158;DHT22;12316;50.904;4.200;2022-07-23T03:33:22;16.40;99.90
24158;DHT22;12316;50.904;4.200;2022-07-23T03:35:49;16.30;99.90
24158;DHT22;12316;50.904;4.200;2022-07-23T03:38:15;16.20;99.90
24158;DHT22;12316;50.904;4.200;2022-07-23T03:40:41;16.20;99.90
24158;DHT22;12316;50.904;4.200;2022-07-23T03:43:07;16.20;99.90
24158;DHT22;12316;50.904;4.200;2022-07-23T03:45:33;16.20;99.90
24158;DHT22;12316;50.904;4.200;2022-07-23T03:47:59;16.20;99.90
24158;DHT22;12316;50.904;4.200;2022-07-23T03:50:25;16.30;99.90
24158;DHT22;12316;50.904;4.200;2022-07-23T03:52:51;16.20;99.90
24158;DHT22;12316;50.904;4.200;2022-07-23T03:55:17;16.20;99.90
24158;DHT22;12316;50.904;4.200;2022-07-23T03:57:43;16.20;99.90
24158;DHT22;12316;50.904;4.200;2022-07-23T04:00:09;16.20;99.90
24158;DHT22;12316;50.904;4.200;2022-07-23T04:02:37;16.20;99.90
24158;DHT22;12316;50.904;4.200;2022-07-23T04:05:03;16.20;99.90
24158;DHT22;12316;50.904;4.200;2022-07-23T04:07:29;16.20;99.90
24158;DHT22;12316;50.904;4.200;2022-07-23T04:09:55;16.10;99.90
24158;DHT22;12316;50.904;4.200;2022-07-23T04:12:21;16.20;99.90
24158;DHT22;12316;50.904;4.200;2022-07-23T04:14:46;16.10;99.90
24158;DHT22;12316;50.904;4.200;2022-07-23T04:17:12;16.20;99.90
24158;DHT22;12316;50.904;4.200;2022-07-23T04:19:38;16.20;99.90
24158;DHT22;12316;50.904;4.200;2022-07-23T04:22:07;16.20;99.90
24158;DHT22;12316;50.904;4.200;2022-07-23T04:24:33;16.30;99.90
24158;DHT22;12316;50.904;4.200;2022-07-23T04:26:59;16.30;99.90
24158;DHT22;12316;50.904;4.200;2022-07-23T04:29:24;16.40;99.90
24158;DHT22;12316;50.904;4.200;2022-07-23T04:31:50;16.40;99.90
24158;DHT22;12316;50.904;4.200;2022-07-23T04:34:16;16.40;99.90
24158;DHT22;12316;50.904;4.200;2022-07-23T04:36:42;16.40;99.90
24158;DHT22;12316;50.904;4.200;2022-07-23T04:39:08;16.50;99.90
24158;DHT22;12316;50.904;4.200;2022-07-23T04:41:34;16.50;99.90
24158;DHT22;12316;50.904;4.200;2022-07-23T04:44:00;16.60;99.90
24158;DHT22;12316;50.904;4.200;2022-07-23T04:46:26;16.60;99.90
24158;DHT22;12316;50.904;4.200;2022-07-23T04:48:53;16.70;99.90
24158;DHT22;12316;50.904;4.200;2022-07-23T04:51:19;16.90;99.90
24158;DHT22;12316;50.904;4.200;2022-07-23T04:53:44;17.10;99.90
24158;DHT22;12316;50.904;4.200;2022-07-23T04:56:10;17.40;99.90
24158;DHT22;12316;50.904;4.200;2022-07-23T04:58:35;17.70;99.90
24158;DHT22;12316;50.904;4.200;2022-07-23T05:01:01;17.90;99.90
24158;DHT22;12316;50.904;4.200;2022-07-23T05:03:27;18.20;99.90
24158;DHT22;12316;50.904;4.200;2022-07-23T05:05:52;18.50;99.90
24158;DHT22;12316;50.904;4.200;2022-07-23T05:08:19;18.90;99.90
24158;DHT22;12316;50.904;4.200;2022-07-23T05:10:46;19.30;99.90
24158;DHT22;12316;50.904;4.200;2022-07-23T05:13:14;19.80;99.90
24158;DHT22;12316;50.904;4.200;2022-07-23T05:15:41;20.20;99.90
24158;DHT22;12316;50.904;4.200;2022-07-23T05:18:06;20.60;99.90
24158;DHT22;12316;50.904;4.200;2022-07-23T05:20:32;20.80;99.90
24158;DHT22;12316;50.904;4.200;2022-07-23T05:22:57;20.70;99.90
24158;DHT22;12316;50.904;4.200;2022-07-23T05:25:23;20.50;99.90
24158;DHT22;12316;50.904;4.200;2022-07-23T05:27:49;20.50;99.90
24158;DHT22;12316;50.904;4.200;2022-07-23T05:30:14;20.30;99.90
24158;DHT22;12316;50.904;4.200;2022-07-23T05:32:40;20.20;99.90
24158;DHT22;12316;50.904;4.200;2022-07-23T05:35:07;20.10;99.90
24158;DHT22;12316;50.904;4.200;2022-07-23T05:37:33;19.90;99.90
24158;DHT22;12316;50.904;4.200;2022-07-23T05:40:03;19.80;99.90
24158;DHT22;12316;50.904;4.200;2022-07-23T05:42:29;19.70;99.90
24158;DHT22;12316;50.904;4.200;2022-07-23T05:44:54;19.60;99.90
24158;DHT22;12316;50.904;4.200;2022-07-23T05:47:20;19.70;99.90
24158;DHT22;12316;50.904;4.200;2022-07-23T05:49:45;19.70;99.90
24158;DHT22;12316;50.904;4.200;2022-07-23T05:52:12;19.90;99.90
24158;DHT22;12316;50.904;4.200;2022-07-23T05:54:37;20.00;99.90
24158;DHT22;12316;50.904;4.200;2022-07-23T05:57:03;20.00;99.90
24158;DHT22;12316;50.904;4.200;2022-07-23T05:59:30;20.00;99.90
24158;DHT22;12316;50.904;4.200;2022-07-23T06:01:55;20.10;99.90
24158;DHT22;12316;50.904;4.200;2022-07-23T06:04:21;20.00;99.90
24158;DHT22;12316;50.904;4.200;2022-07-23T06:06:46;20.10;99.90
24158;DHT22;12316;50.904;4.200;2022-07-23T06:09:13;20.20;99.90
24158;DHT22;12316;50.904;4.200;2022-07-23T06:11:40;20.20;99.90
24158;DHT22;12316;50.904;4.200;2022-07-23T06:14:05;20.40;99.90
24158;DHT22;12316;50.904;4.200;2022-07-23T06:16:31;20.60;99.90
24158;DHT22;12316;50.904;4.200;2022-07-23T06:18:57;21.10;99.90
24158;DHT22;12316;50.904;4.200;2022-07-23T06:21:22;21.30;99.90
24158;DHT22;12316;50.904;4.200;2022-07-23T06:23:48;21.30;99.90
24158;DHT22;12316;50.904;4.200;2022-07-23T06:26:14;21.60;99.90
24158;DHT22;12316;50.904;4.200;2022-07-23T06:28:39;21.90;99.90
24158;DHT22;12316;50.904;4.200;2022-07-23T06:31:05;22.30;99.90
24158;DHT22;12316;50.904;4.200;2022-07-23T06:33:31;22.70;99.90
24158;DHT22;12316;50.904;4.200;2022-07-23T06:35:57;23.00;99.90
24158;DHT22;12316;50.904;4.200;2022-07-23T06:38:23;23.00;99.90
24158;DHT22;12316;50.904;4.200;2022-07-23T06:40:48;22.80;99.90
24158;DHT22;12316;50.904;4.200;2022-07-23T06:43:14;22.50;99.90
24158;DHT22;12316;50.904;4.200;2022-07-23T06:45:40;22.20;99.90
24158;DHT22;12316;50.904;4.200;2022-07-23T06:48:05;22.20;99.90
24158;DHT22;12316;50.904;4.200;2022-07-23T06:50:32;22.30;99.90
24158;DHT22;12316;50.904;4.200;2022-07-23T06:52:58;22.50;99.90
24158;DHT22;12316;50.904;4.200;2022-07-23T06:55:23;22.80;99.90
24158;DHT22;12316;50.904;4.200;2022-07-23T06:57:49;22.80;99.90
24158;DHT22;12316;50.904;4.200;2022-07-23T07:00:15;22.60;99.90
24158;DHT22;12316;50.904;4.200;2022-07-23T07:02:41;22.40;99.90
24158;DHT22;12316;50.904;4.200;2022-07-23T07:05:07;22.10;99.90
24158;DHT22;12316;50.904;4.200;2022-07-23T07:07:34;21.80;99.90
24158;DHT22;12316;50.904;4.200;2022-07-23T07:09:59;21.60;99.90
24158;DHT22;12316;50.904;4.200;2022-07-23T07:12:25;21.50;99.90
24158;DHT22;12316;50.904;4.200;2022-07-23T07:14:52;21.60;99.90
24158;DHT22;12316;50.904;4.200;2022-07-23T07:17:18;21.60;99.90
24158;DHT22;12316;50.904;4.200;2022-07-23T07:19:44;21.60;99.90
24158;DHT22;12316;50.904;4.200;2022-07-23T07:22:10;21.70;99.90
24158;DHT22;12316;50.904;4.200;2022-07-23T07:24:35;21.70;99.90
24158;DHT22;12316;50.904;4.200;2022-07-23T07:27:01;21.70;99.90
24158;DHT22;12316;50.904;4.200;2022-07-23T07:29:26;21.70;99.90
24158;DHT22;12316;50.904;4.200;2022-07-23T07:31:54;21.80;99.90
24158;DHT22;12316;50.904;4.200;2022-07-23T07:34:20;21.70;99.90
24158;DHT22;12316;50.904;4.200;2022-07-23T07:36:46;21.80;99.90
24158;DHT22;12316;50.904;4.200;2022-07-23T07:39:11;21.80;99.90
24158;DHT22;12316;50.904;4.200;2022-07-23T07:41:38;21.90;99.90
24158;DHT22;12316;50.904;4.200;2022-07-23T07:44:04;22.00;99.90
24158;DHT22;12316;50.904;4.200;2022-07-23T07:46:29;21.90;99.90
24158;DHT22;12316;50.904;4.200;2022-07-23T07:48:55;21.90;99.90
24158;DHT22;12316;50.904;4.200;2022-07-23T07:51:21;22.10;99.90
24158;DHT22;12316;50.904;4.200;2022-07-23T07:53:48;22.10;99.90
24158;DHT22;12316;50.904;4.200;2022-07-23T07:56:13;22.20;99.90
24158;DHT22;12316;50.904;4.200;2022-07-23T07:58:39;22.20;99.90
24158;DHT22;12316;50.904;4.200;2022-07-23T08:01:05;22.30;99.90
24158;DHT22;12316;50.904;4.200;2022-07-23T08:03:30;22.30;99.90
24158;DHT22;12316;50.904;4.200;2022-07-23T08:05:56;22.30;99.90
24158;DHT22;12316;50.904;4.200;2022-07-23T08:08:21;22.40;99.90
24158;DHT22;12316;50.904;4.200;2022-07-23T08:10:48;22.40;99.90
24158;DHT22;12316;50.904;4.200;2022-07-23T08:13:15;22.40;99.90
24158;DHT22;12316;50.904;4.200;2022-07-23T08:15:41;22.60;99.90
24158;DHT22;12316;50.904;4.200;2022-07-23T08:18:08;22.80;99.90
24158;DHT22;12316;50.904;4.200;2022-07-23T08:20:33;22.70;99.90
24158;DHT22;12316;50.904;4.200;2022-07-23T08:23:03;22.80;99.90
24158;DHT22;12316;50.904;4.200;2022-07-23T08:25:31;22.70;99.90
24158;DHT22;12316;50.904;4.200;2022-07-23T08:27:59;22.80;99.90
24158;DHT22;12316;50.904;4.200;2022-07-23T08:30:25;22.90;99.90
24158;DHT22;12316;50.904;4.200;2022-07-23T08:32:57;23.10;99.70
24158;DHT22;12316;50.904;4.200;2022-07-23T08:35:33;22.90;99.80
24158;DHT22;12316;50.904;4.200;2022-07-23T08:38:01;23.10;99.90
24158;DHT22;12316;50.904;4.200;2022-07-23T08:40:29;23.20;99.90
24158;DHT22;12316;50.904;4.200;2022-07-23T08:42:55;23.40;99.30
24158;DHT22;12316;50.904;4.200;2022-07-23T08:45:23;23.50;98.90
24158;DHT22;12316;50.904;4.200;2022-07-23T08:47:53;23.50;98.80
24158;DHT22;12316;50.904;4.200;2022-07-23T08:50:20;23.60;98.30
24158;DHT22;12316;50.904;4.200;2022-07-23T08:52:48;23.70;98.50
24158;DHT22;12316;50.904;4.200;2022-07-23T08:55:17;23.90;97.70
24158;DHT22;12316;50.904;4.200;2022-07-23T08:57:43;23.90;97.60
24158;DHT22;12316;50.904;4.200;2022-07-23T09:00:10;24.10;98.00
24158;DHT22;12316;50.904;4.200;2022-07-23T09:02:41;24.20;97.50
24158;DHT22;12316;50.904;4.200;2022-07-23T09:05:10;24.30;96.70
24158;DHT22;12316;50.904;4.200;2022-07-23T09:10:43;24.50;94.20
24158;DHT22;12316;50.904;4.200;2022-07-23T09:18:38;25.40;93.50
24158;DHT22;12316;50.904;4.200;2022-07-23T09:21:09;25.50;92.00
24158;DHT22;12316;50.904;4.200;2022-07-23T09:23:40;25.40;91.80
24158;DHT22;12316;50.904;4.200;2022-07-23T09:26:24;25.20;92.10
24158;DHT22;12316;50.904;4.200;2022-07-23T09:28:55;25.10;92.30
24158;DHT22;12316;50.904;4.200;2022-07-23T09:31:22;25.00;91.60
24158;DHT22;12316;50.904;4.200;2022-07-23T09:33:48;25.00;92.00
24158;DHT22;12316;50.904;4.200;2022-07-23T09:36:14;25.10;92.20
24158;DHT22;12316;50.904;4.200;2022-07-23T09:38:50;25.00;91.60
24158;DHT22;12316;50.904;4.200;2022-07-23T09:41:16;25.10;92.70
24158;DHT22;12316;50.904;4.200;2022-07-23T09:43:42;25.00;92.30
24158;DHT22;12316;50.904;4.200;2022-07-23T09:46:18;24.90;91.90
24158;DHT22;12316;50.904;4.200;2022-07-23T09:48:45;25.00;92.40
24158;DHT22;12316;50.904;4.200;2022-07-23T09:51:10;25.10;91.70
24158;DHT22;12316;50.904;4.200;2022-07-23T09:53:36;25.20;91.50
24158;DHT22;12316;50.904;4.200;2022-07-23T09:56:02;25.30;90.60
24158;DHT22;12316;50.904;4.200;2022-07-23T09:58:28;25.30;90.60
24158;DHT22;12316;50.904;4.200;2022-07-23T10:00:56;25.00;90.50
24158;DHT22;12316;50.904;4.200;2022-07-23T10:03:23;25.00;90.00
24158;DHT22;12316;50.904;4.200;2022-07-23T10:05:50;25.00;90.10
24158;DHT22;12316;50.904;4.200;2022-07-23T10:08:19;25.00;88.90
24158;DHT22;12316;50.904;4.200;2022-07-23T10:10:46;25.00;88.80
24158;DHT22;12316;50.904;4.200;2022-07-23T10:13:14;25.10;88.70
24158;DHT22;12316;50.904;4.200;2022-07-23T10:15:58;25.20;89.60
24158;DHT22;12316;50.904;4.200;2022-07-23T10:18:24;25.20;90.00
24158;DHT22;12316;50.904;4.200;2022-07-23T10:20:50;25.20;87.70
24158;DHT22;12316;50.904;4.200;2022-07-23T10:31:54;25.20;85.10
24158;DHT22;12316;50.904;4.200;2022-07-23T10:34:29;25.30;86.60
24158;DHT22;12316;50.904;4.200;2022-07-23T10:37:03;25.30;87.00
24158;DHT22;12316;50.904;4.200;2022-07-23T10:39:33;25.50;86.50
24158;DHT22;12316;50.904;4.200;2022-07-23T10:44:46;25.70;87.00
24158;DHT22;12316;50.904;4.200;2022-07-23T10:47:21;25.80;83.80
24158;DHT22;12316;50.904;4.200;2022-07-23T10:50:27;25.90;85.80
24158;DHT22;12316;50.904;4.200;2022-07-23T10:53:14;25.90;85.90
24158;DHT22;12316;50.904;4.200;2022-07-23T10:55:43;26.00;85.50
24158;DHT22;12316;50.904;4.200;2022-07-23T10:58:09;26.20;86.00
24158;DHT22;12316;50.904;4.200;2022-07-23T11:00:36;26.50;85.70
24158;DHT22;12316;50.904;4.200;2022-07-23T11:03:45;26.50;84.50
24158;DHT22;12316;50.904;4.200;2022-07-23T11:06:13;26.60;85.00
24158;DHT22;12316;50.904;4.200;2022-07-23T11:08:39;26.90;86.40
24158;DHT22;12316;50.904;4.200;2022-07-23T11:13:47;27.20;86.60
24158;DHT22;12316;50.904;4.200;2022-07-23T11:26:43;27.30;84.00
24158;DHT22;12316;50.904;4.200;2022-07-23T11:32:01;26.90;84.70
24158;DHT22;12316;50.904;4.200;2022-07-23T11:39:55;26.80;86.70
24158;DHT22;12316;50.904;4.200;2022-07-23T11:42:21;26.90;85.30
24158;DHT22;12316;50.904;4.200;2022-07-23T11:44:47;27.00;86.70
24158;DHT22;12316;50.904;4.200;2022-07-23T11:47:13;27.30;86.10
24158;DHT22;12316;50.904;4.200;2022-07-23T11:49:41;27.40;83.80
24158;DHT22;12316;50.904;4.200;2022-07-23T11:52:17;27.40;82.80
24158;DHT22;12316;50.904;4.200;2022-07-23T11:54:50;27.30;81.60
24158;DHT22;12316;50.904;4.200;2022-07-23T11:57:18;27.30;82.00
24158;DHT22;12316;50.904;4.200;2022-07-23T11:59:47;27.20;82.30
24158;DHT22;12316;50.904;4.200;2022-07-23T12:02:13;27.00;83.00
24158;DHT22;12316;50.904;4.200;2022-07-23T12:04:45;27.00;82.60
24158;DHT22;12316;50.904;4.200;2022-07-23T12:07:35;27.00;82.60
24158;DHT22;12316;50.904;4.200;2022-07-23T12:12:42;26.90;82.20
24158;DHT22;12316;50.904;4.200;2022-07-23T12:15:08;26.90;82.90
24158;DHT22;12316;50.904;4.200;2022-07-23T12:17:36;26.90;82.50
24158;DHT22;12316;50.904;4.200;2022-07-23T12:20:04;27.00;82.30
24158;DHT22;12316;50.904;4.200;2022-07-23T12:22:39;26.90;81.00
24158;DHT22;12316;50.904;4.200;2022-07-23T12:25:11;26.90;82.10
24158;DHT22;12316;50.904;4.200;2022-07-23T12:27:37;26.90;83.00
24158;DHT22;12316;50.904;4.200;2022-07-23T12:32:46;27.20;80.90
24158;DHT22;12316;50.904;4.200;2022-07-23T12:35:13;27.30;81.20
24158;DHT22;12316;50.904;4.200;2022-07-23T12:37:41;27.50;81.50
24158;DHT22;12316;50.904;4.200;2022-07-23T12:40:26;27.40;80.10
24158;DHT22;12316;50.904;4.200;2022-07-23T12:42:58;27.40;81.30
24158;DHT22;12316;50.904;4.200;2022-07-23T12:45:24;27.50;81.10
24158;DHT22;12316;50.904;4.200;2022-07-23T12:47:58;27.50;80.50
24158;DHT22;12316;50.904;4.200;2022-07-23T12:50:44;27.50;78.10
24158;DHT22;12316;50.904;4.200;2022-07-23T12:53:16;27.50;78.50
24158;DHT22;12316;50.904;4.200;2022-07-23T12:55:43;27.50;79.70
24158;DHT22;12316;50.904;4.200;2022-07-23T12:58:14;27.50;80.00
24158;DHT22;12316;50.904;4.200;2022-07-23T13:01:08;27.60;80.80
24158;DHT22;12316;50.904;4.200;2022-07-23T13:03:39;27.70;80.00
24158;DHT22;12316;50.904;4.200;2022-07-23T13:06:07;27.70;80.50
24158;DHT22;12316;50.904;4.200;2022-07-23T13:08:35;27.80;80.00
24158;DHT22;12316;50.904;4.200;2022-07-23T13:11:01;27.90;78.10
24158;DHT22;12316;50.904;4.200;2022-07-23T13:13:29;28.20;78.90
24158;DHT22;12316;50.904;4.200;2022-07-23T13:15:57;28.20;77.60
24158;DHT22;12316;50.904;4.200;2022-07-23T13:18:23;28.20;77.00
24158;DHT22;12316;50.904;4.200;2022-07-23T13:20:49;28.20;76.20
24158;DHT22;12316;50.904;4.200;2022-07-23T13:23:16;28.20;78.30
24158;DHT22;12316;50.904;4.200;2022-07-23T13:25:42;28.40;76.80
24158;DHT22;12316;50.904;4.200;2022-07-23T13:28:08;28.60;77.10
24158;DHT22;12316;50.904;4.200;2022-07-23T13:30:34;28.60;76.10
24158;DHT22;12316;50.904;4.200;2022-07-23T13:33:02;28.90;79.60
24158;DHT22;12316;50.904;4.200;2022-07-23T13:35:29;29.00;76.70
24158;DHT22;12316;50.904;4.200;2022-07-23T13:37:56;29.00;77.70
24158;DHT22;12316;50.904;4.200;2022-07-23T13:40:21;28.80;76.00
24158;DHT22;12316;50.904;4.200;2022-07-23T13:42:47;28.80;75.50
24158;DHT22;12316;50.904;4.200;2022-07-23T13:45:13;28.70;76.80
24158;DHT22;12316;50.904;4.200;2022-07-23T13:47:39;28.60;76.00
24158;DHT22;12316;50.904;4.200;2022-07-23T13:50:05;28.80;76.00
24158;DHT22;12316;50.904;4.200;2022-07-23T13:52:30;28.90;76.50
24158;DHT22;12316;50.904;4.200;2022-07-23T13:55:00;28.90;77.20
24158;DHT22;12316;50.904;4.200;2022-07-23T13:57:26;28.90;75.00
24158;DHT22;12316;50.904;4.200;2022-07-23T13:59:51;29.20;76.70
24158;DHT22;12316;50.904;4.200;2022-07-23T14:02:17;29.00;75.00
24158;DHT22;12316;50.904;4.200;2022-07-23T14:04:44;29.00;77.10
24158;DHT22;12316;50.904;4.200;2022-07-23T14:07:10;29.20;77.00
24158;DHT22;12316;50.904;4.200;2022-07-23T14:09:36;29.40;75.00
24158;DHT22;12316;50.904;4.200;2022-07-23T14:12:02;29.50;75.80
24158;DHT22;12316;50.904;4.200;2022-07-23T14:14:28;29.60;75.40
24158;DHT22;12316;50.904;4.200;2022-07-23T14:16:55;29.60;74.60
24158;DHT22;12316;50.904;4.200;2022-07-23T14:19:20;29.60;75.70
24158;DHT22;12316;50.904;4.200;2022-07-23T14:21:46;29.70;75.30
24158;DHT22;12316;50.904;4.200;2022-07-23T14:24:14;29.90;75.90
24158;DHT22;12316;50.904;4.200;2022-07-23T14:26:41;30.00;75.40
24158;DHT22;12316;50.904;4.200;2022-07-23T14:29:06;30.20;73.70
24158;DHT22;12316;50.904;4.200;2022-07-23T14:31:33;30.20;73.60
24158;DHT22;12316;50.904;4.200;2022-07-23T14:33:58;30.30;72.30
24158;DHT22;12316;50.904;4.200;2022-07-23T14:36:24;30.10;72.50
24158;DHT22;12316;50.904;4.200;2022-07-23T14:38:50;30.00;71.40
24158;DHT22;12316;50.904;4.200;2022-07-23T14:41:16;30.00;72.80
24158;DHT22;12316;50.904;4.200;2022-07-23T14:43:42;30.10;73.80
24158;DHT22;12316;50.904;4.200;2022-07-23T14:46:08;30.10;73.20
24158;DHT22;12316;50.904;4.200;2022-07-23T14:48:33;30.10;73.40
24158;DHT22;12316;50.904;4.200;2022-07-23T14:50:59;30.10;73.50
24158;DHT22;12316;50.904;4.200;2022-07-23T14:53:25;30.10;73.90
24158;DHT22;12316;50.904;4.200;2022-07-23T14:55:50;30.30;73.60
24158;DHT22;12316;50.904;4.200;2022-07-23T14:58:16;30.20;71.00
24158;DHT22;12316;50.904;4.200;2022-07-23T15:00:43;29.90;72.20
24158;DHT22;12316;50.904;4.200;2022-07-23T15:03:08;29.70;72.80
24158;DHT22;12316;50.904;4.200;2022-07-23T15:05:34;29.60;73.10
24158;DHT22;12316;50.904;4.200;2022-07-23T15:08:00;29.50;73.90
24158;DHT22;12316;50.904;4.200;2022-07-23T15:10:25;29.40;73.80
24158;DHT22;12316;50.904;4.200;2022-07-23T15:12:51;29.20;73.80
24158;DHT22;12316;50.904;4.200;2022-07-23T15:15:17;29.00;74.00
24158;DHT22;12316;50.904;4.200;2022-07-23T15:17:44;28.90;74.10
24158;DHT22;12316;50.904;4.200;2022-07-23T15:20:09;28.90;75.10
24158;DHT22;12316;50.904;4.200;2022-07-23T15:22:35;29.00;74.10
24158;DHT22;12316;50.904;4.200;2022-07-23T15:25:01;29.20;73.40
24158;DHT22;12316;50.904;4.200;2022-07-23T15:27:27;29.20;73.40
24158;DHT22;12316;50.904;4.200;2022-07-23T15:29:53;29.20;73.90
24158;DHT22;12316;50.904;4.200;2022-07-23T15:32:18;29.30;73.80
24158;DHT22;12316;50.904;4.200;2022-07-23T15:34:44;29.40;73.80
24158;DHT22;12316;50.904;4.200;2022-07-23T15:37:10;29.50;73.50
24158;DHT22;12316;50.904;4.200;2022-07-23T15:39:35;29.70;74.10
24158;DHT22;12316;50.904;4.200;2022-07-23T15:42:02;29.80;73.20
24158;DHT22;12316;50.904;4.200;2022-07-23T15:44:28;30.10;73.50
24158;DHT22;12316;50.904;4.200;2022-07-23T15:46:55;30.40;73.80
24158;DHT22;12316;50.904;4.200;2022-07-23T15:49:21;30.40;71.70
24158;DHT22;12316;50.904;4.200;2022-07-23T15:51:46;30.40;72.30
24158;DHT22;12316;50.904;4.200;2022-07-23T15:54:12;30.40;72.80
24158;DHT22;12316;50.904;4.200;2022-07-23T15:56:40;30.40;72.40
24158;DHT22;12316;50.904;4.200;2022-07-23T15:59:07;30.40;72.60
24158;DHT22;12316;50.904;4.200;2022-07-23T16:01:33;30.40;73.40
24158;DHT22;12316;50.904;4.200;2022-07-23T16:03:59;30.20;71.70
24158;DHT22;12316;50.904;4.200;2022-07-23T16:06:25;29.90;72.20
24158;DHT22;12316;50.904;4.200;2022-07-23T16:08:50;29.80;73.10
24158;DHT22;12316;50.904;4.200;2022-07-23T16:11:16;29.70;74.30
24158;DHT22;12316;50.904;4.200;2022-07-23T16:13:42;29.60;73.70
24158;DHT22;12316;50.904;4.200;2022-07-23T16:16:09;29.50;73.70